Time;durP1;ratioP1;P1;durP2;ratioP2;P2;SDS_P1;SDS_P2;PMS_P1;PMS_P2;Temp;Humidity;BMP_temperature;BMP_pressure;BME280_temperature;BME280_humidity;BME280_pressure;Samples;Min_cycle;Max_cycle;Signal;HPM_P1;HPM_P2
2023/04/29 00:00:16;;;;;;;7.67;6.60;;;13.00;99.90;;;;;;5017676;28;20209;-73
2023/04/29 00:02:42;;;;;;;6.93;6.27;;;13.00;99.90;;;;;;5018285;28;20218;-73
2023/04/29 00:05:08;;;;;;;6.50;5.90;;;13.00;99.90;;;;;;5020582;28;20625;-73
2023/04/29 00:07:33;;;;;;;7.17;6.37;;;13.00;99.90;;;;;;5019713;28;20212;-72
2023/04/29 00:09:59;;;;;;;10.40;7.63;;;13.00;99.90;;;;;;5019921;28;20216;-72
2023/04/29 00:12:25;;;;;;;7.73;6.53;;;12.90;99.90;;;;;;5019593;28;20549;-72
2023/04/29 00:14:51;;;;;;;7.47;6.83;;;12.90;99.90;;;;;;5019498;28;20247;-73
2023/04/29 00:17:17;;;;;;;6.40;5.80;;;13.00;99.90;;;;;;5021550;28;20744;-72
2023/04/29 00:19:43;;;;;;;7.20;6.50;;;13.00;99.90;;;;;;5021032;28;20227;-71
2023/04/29 00:22:08;;;;;;;7.43;6.63;;;13.00;99.90;;;;;;5019193;28;20203;-73
2023/04/29 00:24:34;;;;;;;8.13;6.47;;;13.10;99.90;;;;;;5012011;28;20225;-72
2023/04/29 00:27:01;;;;;;;7.40;6.70;;;13.10;99.90;;;;;;5015254;28;20191;-72
2023/04/29 00:29:27;;;;;;;7.77;7.07;;;13.00;99.90;;;;;;5013277;28;20202;-73
2023/04/29 00:31:53;;;;;;;8.30;7.60;;;13.00;99.90;;;;;;5015321;28;20223;-71
2023/04/29 00:34:19;;;;;;;7.10;6.50;;;13.10;99.90;;;;;;5017217;28;22744;-72
2023/04/29 00:36:44;;;;;;;8.33;6.80;;;13.10;99.90;;;;;;5012244;28;20190;-70
2023/04/29 00:39:10;;;;;;;9.27;7.07;;;13.10;99.90;;;;;;5012459;28;20245;-71
2023/04/29 00:41:36;;;;;;;6.93;6.30;;;13.10;99.90;;;;;;5009829;28;20208;-71
2023/04/29 00:44:02;;;;;;;7.77;6.97;;;13.00;99.90;;;;;;5012810;28;20192;-72
2023/04/29 00:46:27;;;;;;;6.93;6.33;;;13.00;99.90;;;;;;5013633;28;20196;-72
2023/04/29 00:48:53;;;;;;;8.37;6.83;;;13.00;99.90;;;;;;5010512;28;20421;-73
2023/04/29 00:51:19;;;;;;;7.43;6.70;;;13.00;99.90;;;;;;5011963;28;20676;-72
2023/04/29 00:53:44;;;;;;;6.70;5.87;;;13.10;99.90;;;;;;5012544;28;20785;-73
2023/04/29 00:56:10;;;;;;;6.63;6.03;;;13.20;99.90;;;;;;5017052;28;20248;-72
2023/04/29 00:58:38;;;;;;;8.80;7.30;;;13.20;99.90;;;;;;5013135;28;20219;-73
2023/04/29 01:01:03;;;;;;;7.37;6.60;;;13.30;99.90;;;;;;5014875;28;20286;-72
2023/04/29 01:03:31;;;;;;;8.80;6.13;;;13.20;99.90;;;;;;5012337;28;20855;-72
2023/04/29 01:06:34;;;;;;;7.83;7.03;;;13.10;99.90;;;;;;5014224;28;20197;-71
2023/04/29 01:09:15;;;;;;;7.60;6.70;;;13.00;99.90;;;;;;5011067;28;20644;-72
2023/04/29 01:12:16;;;;;;;7.60;6.80;;;12.90;99.90;;;;;;5006092;28;20216;-72
2023/04/29 01:14:48;;;;;;;8.90;7.50;;;12.80;99.90;;;;;;5009173;28;20211;-72
2023/04/29 01:17:18;;;;;;;10.73;7.83;;;12.80;99.90;;;;;;5014085;28;20205;-72
2023/04/29 01:19:49;;;;;;;9.37;7.33;;;12.60;99.90;;;;;;5008588;28;20230;-70
2023/04/29 01:22:16;;;;;;;8.70;7.80;;;12.70;99.90;;;;;;5010457;28;20226;-72
2023/04/29 01:24:42;;;;;;;8.27;7.47;;;12.70;99.90;;;;;;5006608;28;20673;-72
2023/04/29 01:27:17;;;;;;;8.20;7.50;;;12.80;99.90;;;;;;5004692;28;20202;-76
2023/04/29 01:29:52;;;;;;;10.70;9.00;;;12.80;99.90;;;;;;5011738;28;20683;-71
2023/04/29 01:32:47;;;;;;;8.93;8.00;;;12.80;99.90;;;;;;5016407;28;20630;-71
2023/04/29 01:35:45;;;;;;;9.00;8.10;;;12.80;99.90;;;;;;5000269;28;20666;-72
2023/04/29 01:38:28;;;;;;;9.73;8.73;;;12.70;99.90;;;;;;5011736;28;20198;-72
2023/04/29 01:41:16;;;;;;;10.73;9.33;;;12.70;99.90;;;;;;5007173;28;20710;-74
2023/04/29 01:43:44;;;;;;;9.87;9.03;;;12.60;99.90;;;;;;5010903;28;20206;-69
2023/04/29 01:46:11;;;;;;;9.93;8.97;;;12.70;99.90;;;;;;5010321;28;20259;-74
2023/04/29 01:48:38;;;;;;;10.80;9.43;;;12.70;99.90;;;;;;5010550;28;20228;-75
2023/04/29 01:51:05;;;;;;;9.97;9.07;;;12.70;99.90;;;;;;5010686;28;20206;-73
2023/04/29 01:53:31;;;;;;;10.43;9.20;;;12.70;99.90;;;;;;5003612;28;20220;-73
2023/04/29 01:55:57;;;;;;;11.43;10.13;;;12.60;99.90;;;;;;5009153;28;20635;-72
2023/04/29 01:58:22;;;;;;;11.30;10.20;;;12.60;99.90;;;;;;5025213;28;20292;-72
2023/04/29 02:00:48;;;;;;;11.40;9.70;;;12.60;99.90;;;;;;5009793;28;20229;-73
2023/04/29 02:03:14;;;;;;;11.43;10.30;;;12.50;99.90;;;;;;5009189;28;20206;-74
2023/04/29 02:05:39;;;;;;;13.20;10.37;;;12.40;99.90;;;;;;5011810;28;20229;-74
2023/04/29 02:08:06;;;;;;;13.47;11.20;;;12.30;99.90;;;;;;5010839;28;20684;-74
2023/04/29 02:10:32;;;;;;;14.80;11.53;;;12.30;99.90;;;;;;5016194;28;20230;-73
2023/04/29 02:12:57;;;;;;;11.63;10.43;;;12.20;99.90;;;;;;5009732;28;20636;-73
2023/04/29 02:15:26;;;;;;;12.93;10.70;;;12.20;99.90;;;;;;5005502;28;20231;-74
2023/04/29 02:17:52;;;;;;;12.30;11.00;;;12.40;99.90;;;;;;5010062;28;20251;-73
2023/04/29 02:20:18;;;;;;;13.20;11.67;;;12.50;99.90;;;;;;5012482;28;20697;-74
2023/04/29 02:22:44;;;;;;;12.80;11.50;;;12.50;99.90;;;;;;5002787;28;20219;-73
2023/04/29 02:25:10;;;;;;;13.97;11.93;;;12.50;99.90;;;;;;5009260;28;20604;-75
2023/04/29 02:27:35;;;;;;;12.80;11.33;;;12.40;99.90;;;;;;5010572;28;20663;-75
2023/04/29 02:30:03;;;;;;;12.53;11.33;;;12.40;99.90;;;;;;5021109;28;20198;-73
2023/04/29 02:32:29;;;;;;;13.43;12.03;;;12.50;99.90;;;;;;5011087;28;20707;-74
2023/04/29 02:34:55;;;;;;;13.23;11.80;;;12.50;99.90;;;;;;5019196;28;20190;-73
2023/04/29 02:37:21;;;;;;;12.93;11.60;;;12.50;99.90;;;;;;5012342;28;20214;-74
2023/04/29 02:39:46;;;;;;;12.70;11.07;;;12.60;99.90;;;;;;5018297;28;20237;-72
2023/04/29 02:42:12;;;;;;;13.37;11.67;;;12.60;99.90;;;;;;5017817;28;20550;-74
2023/04/29 02:44:38;;;;;;;13.77;12.23;;;12.60;99.90;;;;;;5019554;28;20210;-75
2023/04/29 02:47:04;;;;;;;13.23;12.03;;;12.60;99.90;;;;;;5018544;28;20519;-73
2023/04/29 02:49:29;;;;;;;12.87;11.57;;;12.60;99.90;;;;;;5014255;28;20199;-73
2023/04/29 02:51:55;;;;;;;15.20;12.53;;;12.40;99.90;;;;;;5017734;28;20215;-72
2023/04/29 02:54:20;;;;;;;14.07;12.70;;;12.40;99.90;;;;;;5009376;28;20289;-75
2023/04/29 02:56:46;;;;;;;13.20;11.90;;;12.50;99.90;;;;;;5014965;28;20210;-69
2023/04/29 02:59:11;;;;;;;17.13;12.80;;;12.50;99.90;;;;;;5019371;28;20286;-75
2023/04/29 03:01:39;;;;;;;14.63;12.67;;;12.40;99.90;;;;;;5017249;28;20241;-70
2023/04/29 03:04:05;;;;;;;13.93;12.63;;;12.50;99.90;;;;;;5015548;28;20208;-72
2023/04/29 03:06:31;;;;;;;15.20;13.33;;;12.50;99.90;;;;;;5019073;28;20260;-73
2023/04/29 03:08:56;;;;;;;14.93;13.43;;;12.50;99.90;;;;;;5014296;28;20204;-71
2023/04/29 03:11:25;;;;;;;15.40;13.73;;;12.40;99.90;;;;;;5012495;28;20205;-71
2023/04/29 03:13:51;;;;;;;16.23;14.00;;;12.40;99.90;;;;;;5016849;28;20268;-72
2023/04/29 03:16:16;;;;;;;15.67;14.17;;;12.40;99.90;;;;;;5017682;28;20210;-72
2023/04/29 03:18:43;;;;;;;15.23;13.73;;;12.40;99.90;;;;;;5014148;28;20214;-73
2023/04/29 03:21:09;;;;;;;15.83;14.23;;;12.30;99.90;;;;;;5017429;28;20228;-72
2023/04/29 03:23:35;;;;;;;16.37;14.70;;;12.40;99.90;;;;;;5015933;28;20219;-73
2023/04/29 03:26:00;;;;;;;16.63;14.93;;;12.30;99.90;;;;;;5017541;28;20301;-72
2023/04/29 03:28:26;;;;;;;17.03;15.30;;;12.30;99.90;;;;;;5016843;28;20203;-72
2023/04/29 03:30:51;;;;;;;16.10;14.50;;;12.20;99.90;;;;;;5017225;28;20229;-70
2023/04/29 03:33:17;;;;;;;17.03;15.33;;;12.10;99.90;;;;;;5016300;28;20258;-71
2023/04/29 03:35:43;;;;;;;17.13;15.53;;;12.20;99.90;;;;;;5015863;28;20208;-72
2023/04/29 03:38:09;;;;;;;17.33;15.63;;;12.30;99.90;;;;;;5011115;28;20213;-71
2023/04/29 03:40:34;;;;;;;17.50;15.70;;;12.40;99.90;;;;;;5016027;28;20233;-72
2023/04/29 03:43:00;;;;;;;17.57;15.90;;;12.40;99.90;;;;;;5015642;28;20597;-72
2023/04/29 03:45:26;;;;;;;16.67;15.07;;;12.40;99.90;;;;;;5016275;28;20564;-73
2023/04/29 03:47:52;;;;;;;18.73;16.63;;;12.30;99.90;;;;;;5015605;28;20674;-73
2023/04/29 03:50:17;;;;;;;19.73;16.87;;;12.30;99.90;;;;;;5014614;28;20661;-72
2023/04/29 03:52:43;;;;;;;17.93;16.03;;;12.30;99.90;;;;;;5015138;28;20344;-72
2023/04/29 03:55:09;;;;;;;18.90;17.07;;;12.40;99.90;;;;;;5016180;28;20245;-72
2023/04/29 03:57:34;;;;;;;19.47;16.23;;;12.50;99.90;;;;;;5015701;28;20263;-72
2023/04/29 04:00:00;;;;;;;20.87;17.77;;;12.40;99.90;;;;;;5014274;28;20234;-71
2023/04/29 04:02:25;;;;;;;20.67;18.57;;;12.50;99.90;;;;;;5015391;28;20211;-72
2023/04/29 04:04:53;;;;;;;19.90;17.90;;;12.60;99.90;;;;;;5015371;28;20207;-72
2023/04/29 04:07:18;;;;;;;20.20;18.20;;;12.60;99.90;;;;;;5015744;28;20612;-71
2023/04/29 04:09:44;;;;;;;19.67;17.60;;;12.60;99.90;;;;;;5014815;28;20193;-72
2023/04/29 04:12:10;;;;;;;22.50;20.10;;;12.50;99.90;;;;;;5013681;28;20285;-71
2023/04/29 04:14:35;;;;;;;20.63;18.53;;;12.40;99.90;;;;;;5015134;28;20227;-72
2023/04/29 04:17:01;;;;;;;21.90;19.33;;;12.40;99.90;;;;;;5015786;28;20530;-73
2023/04/29 04:19:28;;;;;;;22.07;19.77;;;12.50;99.90;;;;;;5015582;28;20203;-73
2023/04/29 04:21:53;;;;;;;23.80;20.63;;;12.60;99.90;;;;;;5015237;28;20679;-73
2023/04/29 04:24:19;;;;;;;22.50;20.10;;;12.50;99.90;;;;;;5015289;28;20204;-72
2023/04/29 04:26:44;;;;;;;23.33;20.90;;;12.40;99.90;;;;;;5013591;28;20207;-72
2023/04/29 04:29:10;;;;;;;26.37;21.47;;;12.40;99.90;;;;;;5014955;28;20191;-73
2023/04/29 04:31:37;;;;;;;24.00;21.13;;;12.40;99.90;;;;;;5015279;28;20217;-73
2023/04/29 04:34:02;;;;;;;21.63;19.30;;;12.40;99.90;;;;;;5015550;28;20658;-72
2023/04/29 04:36:28;;;;;;;28.83;23.40;;;12.20;99.90;;;;;;5015335;28;20187;-72
2023/04/29 04:38:53;;;;;;;23.47;20.90;;;12.40;99.90;;;;;;5015133;28;20245;-72
2023/04/29 04:41:19;;;;;;;23.40;20.90;;;12.50;99.90;;;;;;5014335;28;20209;-71
2023/04/29 04:43:45;;;;;;;24.47;21.83;;;12.50;99.90;;;;;;5015583;28;20220;-71
2023/04/29 04:46:12;;;;;;;24.63;21.87;;;12.50;99.90;;;;;;5015161;28;20281;-70
2023/04/29 04:48:37;;;;;;;24.53;21.77;;;12.60;99.90;;;;;;5018579;28;20900;-77
2023/04/29 04:51:10;;;;;;;24.67;22.13;;;12.40;99.90;;;;;;5022900;28;20205;-71
2023/04/29 04:53:36;;;;;;;30.20;23.23;;;12.30;99.90;;;;;;5008032;28;20294;-71
2023/04/29 04:56:02;;;;;;;25.73;22.97;;;12.50;99.90;;;;;;5020069;28;20965;-72
2023/04/29 04:58:27;;;;;;;27.53;21.83;;;12.60;99.90;;;;;;5016195;28;20214;-72
2023/04/29 05:00:53;;;;;;;24.17;21.47;;;12.60;99.90;;;;;;5017727;28;20191;-72
2023/04/29 05:03:18;;;;;;;24.47;21.27;;;12.70;99.90;;;;;;5009940;28;20208;-70
2023/04/29 05:05:44;;;;;;;26.07;22.87;;;12.80;99.90;;;;;;5013913;28;20239;-71
2023/04/29 05:08:09;;;;;;;24.43;21.87;;;12.90;99.90;;;;;;5016299;28;20745;-72
2023/04/29 05:10:37;;;;;;;23.67;21.23;;;12.90;99.90;;;;;;5016327;28;20205;-72
2023/04/29 05:13:03;;;;;;;23.67;20.77;;;12.90;99.90;;;;;;5016523;28;20715;-74
2023/04/29 05:15:28;;;;;;;26.40;23.43;;;12.90;99.90;;;;;;5015789;28;20201;-72
2023/04/29 05:17:54;;;;;;;24.07;21.47;;;12.90;99.90;;;;;;5014179;28;20280;-71
2023/04/29 05:20:20;;;;;;;25.17;21.87;;;12.70;99.90;;;;;;5011499;28;20581;-77
2023/04/29 05:22:45;;;;;;;25.40;22.33;;;12.70;99.90;;;;;;5009822;28;20353;-79
2023/04/29 05:25:11;;;;;;;23.03;20.53;;;12.70;99.90;;;;;;5009505;28;20195;-78
2023/04/29 05:27:37;;;;;;;23.37;20.90;;;12.70;99.90;;;;;;5009534;28;20199;-80
2023/04/29 05:30:03;;;;;;;24.37;19.87;;;12.80;99.90;;;;;;4990141;28;20213;-82
2023/04/29 05:32:28;;;;;;;23.83;21.07;;;12.70;99.90;;;;;;5014775;28;20230;-83
2023/04/29 05:34:54;;;;;;;22.90;20.30;;;12.70;99.90;;;;;;5016726;28;20195;-82
2023/04/29 05:37:19;;;;;;;26.70;22.63;;;12.80;99.90;;;;;;5016705;28;20286;-79
2023/04/29 05:39:45;;;;;;;25.23;20.43;;;12.50;99.90;;;;;;5017153;28;20265;-86
2023/04/29 05:42:10;;;;;;;25.60;21.03;;;12.40;99.90;;;;;;4995748;28;20562;-82
2023/04/29 05:44:36;;;;;;;24.03;21.53;;;12.40;99.90;;;;;;5005663;28;20203;-79
2023/04/29 05:47:01;;;;;;;24.50;21.43;;;12.40;99.90;;;;;;5008051;28;20203;-77
2023/04/29 05:49:27;;;;;;;24.60;20.80;;;12.50;99.90;;;;;;5022467;28;20206;-81
2023/04/29 05:51:52;;;;;;;26.47;23.23;;;12.60;99.90;;;;;;5017311;28;20203;-83
2023/04/29 05:54:18;;;;;;;26.90;21.57;;;12.60;99.90;;;;;;5003548;28;20210;-84
2023/04/29 05:56:44;;;;;;;29.40;22.83;;;12.70;99.90;;;;;;5000502;28;20346;-82
2023/04/29 05:59:10;;;;;;;28.27;22.70;;;12.70;99.90;;;;;;5024931;28;20234;-86
2023/04/29 06:01:35;;;;;;;28.17;23.30;;;12.40;99.90;;;;;;5026086;28;20217;-84
2023/04/29 06:04:01;;;;;;;37.07;24.67;;;12.20;99.90;;;;;;5032905;28;21053;-85
2023/04/29 06:06:27;;;;;;;28.73;24.00;;;12.30;99.90;;;;;;5036400;28;20215;-84
2023/04/29 06:08:53;;;;;;;28.77;23.63;;;12.40;99.90;;;;;;5034113;28;20203;-81
2023/04/29 06:11:18;;;;;;;25.63;21.80;;;12.60;99.90;;;;;;5033838;28;20242;-81
2023/04/29 06:13:44;;;;;;;25.37;22.23;;;12.70;99.90;;;;;;5016844;28;20215;-80
2023/04/29 06:16:10;;;;;;;25.67;22.23;;;12.80;99.90;;;;;;5018107;28;20205;-81
2023/04/29 06:18:37;;;;;;;29.13;23.13;;;12.50;99.90;;;;;;5018326;28;20197;-80
2023/04/29 06:21:02;;;;;;;30.93;23.57;;;12.40;99.90;;;;;;5012662;28;20226;-81
2023/04/29 06:23:28;;;;;;;28.57;23.23;;;12.30;99.90;;;;;;5012627;28;20282;-79
2023/04/29 06:25:54;;;;;;;30.93;23.07;;;12.30;99.90;;;;;;5016285;28;20211;-81
2023/04/29 06:28:19;;;;;;;28.40;23.63;;;12.20;99.90;;;;;;5020502;28;20237;-81
2023/04/29 06:30:45;;;;;;;27.30;23.67;;;12.20;99.90;;;;;;5018676;28;20191;-80
2023/04/29 06:33:11;;;;;;;31.57;24.60;;;12.10;99.90;;;;;;5018357;28;20300;-80
2023/04/29 06:35:40;;;;;;;25.13;21.53;;;12.20;99.90;;;;;;5016796;28;20205;-81
2023/04/29 06:38:07;;;;;;;28.63;22.27;;;12.30;99.90;;;;;;5017962;28;20262;-81
2023/04/29 06:40:33;;;;;;;28.70;21.63;;;12.30;99.90;;;;;;5006952;28;20196;-82
2023/04/29 06:42:58;;;;;;;26.03;20.57;;;12.20;99.90;;;;;;5002966;28;20225;-83
2023/04/29 06:45:30;;;;;;;22.67;19.00;;;12.20;99.90;;;;;;5015376;28;20211;-83
2023/04/29 06:47:56;;;;;;;23.43;19.73;;;12.10;99.90;;;;;;5013871;28;20201;-82
2023/04/29 06:50:21;;;;;;;21.07;18.43;;;12.10;99.90;;;;;;5017580;28;20202;-82
2023/04/29 06:52:48;;;;;;;25.20;20.73;;;12.00;99.90;;;;;;5016363;28;20983;-77
2023/04/29 06:55:17;;;;;;;25.73;21.10;;;11.90;99.90;;;;;;5017586;28;20207;-77
2023/04/29 06:57:45;;;;;;;26.57;20.73;;;11.80;99.90;;;;;;5015562;28;20693;-83
2023/04/29 07:00:11;;;;;;;27.83;22.07;;;11.90;99.90;;;;;;5017748;28;20205;-82
2023/04/29 07:02:37;;;;;;;27.50;21.73;;;11.80;99.90;;;;;;5016452;28;20706;-82
2023/04/29 07:05:04;;;;;;;29.17;21.40;;;11.80;99.90;;;;;;5015537;28;20200;-79
2023/04/29 07:07:29;;;;;;;29.37;21.67;;;11.70;99.90;;;;;;5016335;28;20660;-83
2023/04/29 07:09:55;;;;;;;33.33;22.33;;;11.70;99.90;;;;;;5020847;28;20251;-83
2023/04/29 07:12:38;;;;;;;33.23;23.57;;;11.70;99.90;;;;;;5020665;28;20862;-82
2023/04/29 07:15:04;;;;;;;33.50;23.13;;;11.60;99.90;;;;;;5019251;28;20199;-84
2023/04/29 07:17:30;;;;;;;34.50;23.47;;;11.60;99.90;;;;;;5021718;28;20264;-80
2023/04/29 07:19:56;;;;;;;28.60;21.87;;;11.60;99.90;;;;;;5016032;28;20294;-83
2023/04/29 07:22:22;;;;;;;28.87;23.13;;;11.50;99.90;;;;;;4997430;28;20198;-80
2023/04/29 07:24:47;;;;;;;26.97;23.17;;;11.50;99.90;;;;;;5025569;28;20684;-82
2023/04/29 07:27:13;;;;;;;26.13;20.53;;;11.50;99.90;;;;;;5007396;28;20201;-82
2023/04/29 07:29:39;;;;;;;24.20;21.50;;;11.50;99.90;;;;;;5015903;28;20211;-82
2023/04/29 07:32:04;;;;;;;26.73;22.77;;;11.50;99.90;;;;;;5000446;28;20719;-84
2023/04/29 07:34:30;;;;;;;24.37;21.17;;;11.40;99.90;;;;;;5014167;28;20202;-79
2023/04/29 07:36:56;;;;;;;24.30;21.73;;;11.40;99.90;;;;;;5008219;28;20283;-89
2023/04/29 07:39:21;;;;;;;25.70;22.73;;;11.40;99.90;;;;;;5021535;28;20218;-84
2023/04/29 07:41:47;;;;;;;24.10;21.60;;;11.20;99.90;;;;;;5025098;28;20496;-83
2023/04/29 07:44:16;;;;;;;27.30;22.20;;;11.20;99.90;;;;;;5017250;28;20662;-85
2023/04/29 07:46:41;;;;;;;28.43;24.23;;;11.30;99.90;;;;;;5024789;28;20235;-90
2023/04/29 07:49:07;;;;;;;26.20;23.27;;;11.30;99.90;;;;;;5020858;28;20192;-81
2023/04/29 07:51:32;;;;;;;24.90;21.43;;;11.20;99.90;;;;;;5016970;28;20197;-87
2023/04/29 07:53:58;;;;;;;25.93;23.13;;;11.20;99.90;;;;;;5026732;28;20223;-84
2023/04/29 07:56:23;;;;;;;25.03;22.43;;;11.10;99.90;;;;;;5017888;28;20664;-84
2023/04/29 07:58:49;;;;;;;24.00;21.47;;;11.20;99.90;;;;;;5016304;28;20541;-82
2023/04/29 08:01:14;;;;;;;23.60;21.07;;;11.20;99.90;;;;;;5009376;28;20733;-82
2023/04/29 08:03:40;;;;;;;22.03;19.63;;;11.20;99.90;;;;;;5019624;28;20216;-82
2023/04/29 08:06:06;;;;;;;20.87;18.53;;;11.30;99.90;;;;;;5019475;28;20202;-83
2023/04/29 08:08:31;;;;;;;18.77;16.97;;;11.30;99.90;;;;;;5013550;28;20197;-84
2023/04/29 08:10:57;;;;;;;18.53;16.53;;;11.20;99.90;;;;;;5018715;28;20683;-84
2023/04/29 08:13:23;;;;;;;18.37;16.57;;;11.20;99.90;;;;;;5022156;28;20240;-89
2023/04/29 08:15:49;;;;;;;18.87;17.03;;;11.20;99.90;;;;;;5031432;28;20204;-93
2023/04/29 08:18:15;;;;;;;20.57;18.03;;;11.10;99.90;;;;;;5028013;28;20226;-89
2023/04/29 08:20:40;;;;;;;17.93;16.03;;;11.20;99.90;;;;;;5032532;28;20223;-91
2023/04/29 08:23:06;;;;;;;18.33;16.50;;;11.20;99.90;;;;;;5026040;28;20203;-83
2023/04/29 08:25:32;;;;;;;17.40;15.70;;;11.20;99.90;;;;;;5018228;28;20230;-81
2023/04/29 08:28:00;;;;;;;16.97;15.27;;;11.10;99.90;;;;;;5012869;28;20217;-81
2023/04/29 08:30:25;;;;;;;17.60;15.97;;;11.30;99.90;;;;;;4995838;28;20228;-84
2023/04/29 08:32:51;;;;;;;17.60;15.70;;;11.20;99.90;;;;;;5013583;28;20208;-80
2023/04/29 08:35:16;;;;;;;16.97;15.27;;;11.10;99.90;;;;;;5007590;28;20280;-80
2023/04/29 08:37:42;;;;;;;17.37;15.33;;;11.10;99.90;;;;;;5009691;28;20210;-81
2023/04/29 08:40:08;;;;;;;17.90;15.70;;;11.10;99.90;;;;;;5012749;28;20801;-80
2023/04/29 08:42:35;;;;;;;20.93;16.73;;;11.20;99.90;;;;;;5008338;28;20202;-72
2023/04/29 08:45:02;;;;;;;17.20;15.50;;;11.20;99.90;;;;;;5012736;28;20266;-73
2023/04/29 08:47:32;;;;;;;18.03;15.80;;;11.60;99.90;;;;;;5015879;28;20208;-75
2023/04/29 08:50:03;;;;;;;15.80;14.03;;;11.80;99.90;;;;;;5014153;28;20230;-72
2023/04/29 08:52:31;;;;;;;17.60;13.90;;;11.80;99.90;;;;;;5015259;28;20747;-72
2023/04/29 08:54:57;;;;;;;17.30;14.63;;;11.70;99.90;;;;;;4996948;28;20206;-72
2023/04/29 08:57:25;;;;;;;15.53;14.03;;;11.60;99.90;;;;;;5010564;28;20240;-70
2023/04/29 08:59:50;;;;;;;15.60;13.93;;;11.60;99.90;;;;;;5009519;28;20199;-73
2023/04/29 09:02:17;;;;;;;16.10;14.47;;;11.50;99.90;;;;;;4998417;28;20744;-78
2023/04/29 09:05:07;;;;;;;19.03;16.43;;;11.50;99.90;;;;;;5015594;28;20199;-77
2023/04/29 09:07:34;;;;;;;18.77;15.83;;;11.50;99.90;;;;;;5012751;28;20556;-77
2023/04/29 09:10:03;;;;;;;20.10;15.57;;;11.40;99.90;;;;;;5020109;28;20685;-78
2023/04/29 09:12:29;;;;;;;19.57;16.73;;;11.30;99.90;;;;;;5018102;28;20708;-78
2023/04/29 09:14:55;;;;;;;19.37;17.27;;;11.40;99.90;;;;;;5013984;28;20235;-78
2023/04/29 09:17:38;;;;;;;19.77;17.67;;;11.40;99.90;;;;;;5018489;28;20209;-77
2023/04/29 09:20:23;;;;;;;21.83;18.17;;;11.30;99.90;;;;;;5016808;28;20233;-77
2023/04/29 09:22:50;;;;;;;22.53;19.30;;;11.50;99.90;;;;;;4995342;28;20241;-71
2023/04/29 09:25:15;;;;;;;23.53;19.80;;;11.40;99.90;;;;;;5015668;28;20206;-73
2023/04/29 09:27:41;;;;;;;21.53;19.10;;;11.50;99.90;;;;;;5018181;28;20204;-77
2023/04/29 09:30:08;;;;;;;23.70;19.47;;;11.60;99.90;;;;;;5017204;28;20213;-78
2023/04/29 09:32:33;;;;;;;23.80;21.17;;;11.50;99.90;;;;;;5017844;28;20219;-77
2023/04/29 09:35:23;;;;;;;25.90;21.33;;;11.50;99.90;;;;;;5018155;28;20693;-78
2023/04/29 09:37:49;;;;;;;25.63;22.50;;;11.50;99.90;;;;;;5018412;28;20197;-78
2023/04/29 09:40:32;;;;;;;25.57;21.43;;;11.40;99.90;;;;;;5014056;28;20225;-77
2023/04/29 09:42:58;;;;;;;31.37;25.53;;;11.30;99.90;;;;;;5009997;28;20237;-78
2023/04/29 09:45:37;;;;;;;26.83;23.93;;;11.30;99.90;;;;;;5017946;28;20764;-73
2023/04/29 09:48:05;;;;;;;28.87;24.13;;;11.30;99.90;;;;;;5013780;28;20224;-78
2023/04/29 09:50:31;;;;;;;35.30;25.57;;;11.30;99.90;;;;;;5029644;28;20560;-76
2023/04/29 09:52:57;;;;;;;33.37;25.80;;;11.30;99.90;;;;;;5018392;28;20215;-77
2023/04/29 09:55:23;;;;;;;34.03;25.60;;;11.30;99.90;;;;;;5016178;28;20205;-79
2023/04/29 09:57:48;;;;;;;33.90;26.60;;;11.40;99.90;;;;;;5015643;28;20203;-77
2023/04/29 10:00:14;;;;;;;35.07;29.03;;;11.40;99.90;;;;;;5017191;28;20222;-77
2023/04/29 10:02:42;;;;;;;40.60;30.40;;;11.40;99.90;;;;;;5017246;28;20234;-76
2023/04/29 10:05:09;;;;;;;39.67;31.13;;;11.40;99.90;;;;;;5017458;28;20309;-76
2023/04/29 10:07:35;;;;;;;35.10;30.03;;;11.40;99.90;;;;;;5013854;28;20238;-71
2023/04/29 10:10:04;;;;;;;39.53;31.97;;;11.30;99.90;;;;;;5008099;28;20204;-73
2023/04/29 10:12:32;;;;;;;42.67;31.00;;;11.40;99.90;;;;;;5004686;28;20220;-76
2023/04/29 10:15:11;;;;;;;40.57;32.57;;;11.40;99.90;;;;;;5007442;28;20203;-76
2023/04/29 10:17:46;;;;;;;42.03;33.40;;;11.40;99.90;;;;;;5008298;28;20677;-77
2023/04/29 10:20:26;;;;;;;38.73;31.90;;;11.50;99.90;;;;;;5017427;28;20222;-76
2023/04/29 10:22:55;;;;;;;47.93;35.87;;;11.50;99.90;;;;;;5013748;28;20224;-80
2023/04/29 10:25:23;;;;;;;47.00;35.27;;;11.70;99.90;;;;;;5023781;28;20741;-79
2023/04/29 10:27:52;;;;;;;42.03;32.33;;;11.80;99.90;;;;;;5014422;28;20206;-81
2023/04/29 10:30:18;;;;;;;41.27;32.40;;;11.80;99.90;;;;;;5016306;28;20206;-80
2023/04/29 10:32:45;;;;;;;37.97;29.57;;;11.80;99.90;;;;;;5017995;28;20715;-80
2023/04/29 10:35:13;;;;;;;38.57;31.27;;;11.90;99.90;;;;;;5017905;28;20222;-76
2023/04/29 10:37:44;;;;;;;39.53;30.60;;;11.70;99.90;;;;;;5017257;28;20992;-76
2023/04/29 10:40:14;;;;;;;39.97;30.17;;;11.70;99.90;;;;;;5016585;28;20228;-75
2023/04/29 10:42:53;;;;;;;33.40;28.27;;;11.70;99.90;;;;;;5016215;28;20491;-75
2023/04/29 10:45:31;;;;;;;39.30;31.33;;;11.60;99.90;;;;;;5015562;28;20268;-76
2023/04/29 10:48:05;;;;;;;35.60;28.53;;;11.70;99.90;;;;;;5016794;28;20211;-77
2023/04/29 10:50:38;;;;;;;30.67;26.77;;;11.70;99.90;;;;;;5016839;28;20207;-76
2023/04/29 10:53:04;;;;;;;31.03;26.10;;;11.60;99.90;;;;;;5016520;28;20686;-74
2023/04/29 10:55:30;;;;;;;30.17;26.93;;;11.70;99.90;;;;;;5016735;28;20692;-74
2023/04/29 10:57:56;;;;;;;27.67;24.70;;;11.80;99.90;;;;;;5016615;28;20665;-74
2023/04/29 11:00:26;;;;;;;26.77;23.90;;;11.80;99.90;;;;;;5015490;28;20208;-74
2023/04/29 11:03:00;;;;;;;26.73;23.27;;;11.90;99.90;;;;;;4997310;28;20207;-75
2023/04/29 11:05:33;;;;;;;26.07;23.50;;;11.80;99.90;;;;;;5015536;28;20245;-77
2023/04/29 11:08:12;;;;;;;26.27;23.43;;;11.70;99.90;;;;;;5016669;28;20770;-76
2023/04/29 11:10:41;;;;;;;27.17;23.47;;;11.90;99.90;;;;;;5016808;28;20289;-74
2023/04/29 11:13:29;;;;;;;27.30;22.93;;;12.20;99.90;;;;;;5014421;28;20233;-72
2023/04/29 11:16:08;;;;;;;24.13;21.47;;;12.50;99.90;;;;;;5016839;28;20285;-77
2023/04/29 11:18:35;;;;;;;23.70;21.03;;;12.80;99.90;;;;;;5016605;28;20207;-73
2023/04/29 11:21:03;;;;;;;24.07;20.07;;;12.80;99.90;;;;;;5016083;28;20225;-74
2023/04/29 11:23:30;;;;;;;22.80;20.03;;;12.80;99.90;;;;;;5016338;28;20199;-74
2023/04/29 11:25:55;;;;;;;21.17;18.23;;;12.80;99.90;;;;;;5008424;28;20285;-72
2023/04/29 11:28:26;;;;;;;18.90;17.00;;;12.80;99.90;;;;;;5015997;28;20314;-73
2023/04/29 11:30:52;;;;;;;23.33;19.87;;;12.90;99.90;;;;;;5003646;28;20211;-74
2023/04/29 11:33:19;;;;;;;19.90;17.53;;;13.20;99.90;;;;;;5010141;28;20218;-73
2023/04/29 11:35:46;;;;;;;20.27;17.30;;;13.00;99.90;;;;;;5014671;28;20724;-72
2023/04/29 11:38:11;;;;;;;17.53;15.43;;;13.10;99.90;;;;;;5006710;28;20195;-74
2023/04/29 11:40:41;;;;;;;17.57;15.57;;;13.10;99.90;;;;;;5015941;28;20677;-73
2023/04/29 11:43:07;;;;;;;18.43;16.57;;;12.80;99.90;;;;;;5012455;28;20204;-74
2023/04/29 11:45:34;;;;;;;22.53;16.73;;;12.80;99.90;;;;;;5013021;28;20203;-84
2023/04/29 11:48:00;;;;;;;19.10;17.10;;;12.80;99.90;;;;;;5012209;28;20231;-83
2023/04/29 11:50:26;;;;;;;18.57;16.63;;;13.00;99.90;;;;;;5017709;28;20203;-84
2023/04/29 11:52:52;;;;;;;20.33;16.63;;;13.10;99.90;;;;;;5015540;28;20218;-73
2023/04/29 11:55:18;;;;;;;19.93;15.83;;;13.20;99.90;;;;;;5012978;28;20203;-73
2023/04/29 11:57:43;;;;;;;18.50;15.43;;;13.30;99.90;;;;;;5018643;28;20345;-84
2023/04/29 12:00:13;;;;;;;18.43;15.17;;;13.10;99.90;;;;;;5036052;28;20180;-84
2023/04/29 12:02:43;;;;;;;18.17;16.30;;;13.00;99.90;;;;;;5031762;28;20630;-81
2023/04/29 12:05:09;;;;;;;17.73;15.83;;;12.70;99.90;;;;;;5016288;28;20566;-83
2023/04/29 12:07:36;;;;;;;18.90;16.33;;;12.90;99.90;;;;;;4994650;28;20211;-72
2023/04/29 12:10:01;;;;;;;17.73;15.93;;;13.00;99.90;;;;;;5009113;28;20217;-76
2023/04/29 12:12:27;;;;;;;17.97;15.13;;;12.90;99.90;;;;;;5012515;28;20210;-77
2023/04/29 12:14:53;;;;;;;18.80;15.73;;;12.70;99.90;;;;;;5014371;28;20662;-76
2023/04/29 12:17:20;;;;;;;16.73;15.10;;;12.50;99.90;;;;;;5014341;28;20231;-76
2023/04/29 12:19:46;;;;;;;18.40;15.83;;;12.50;99.90;;;;;;5007310;28;20211;-76
2023/04/29 12:22:12;;;;;;;15.40;13.77;;;12.70;99.90;;;;;;5012929;28;20742;-76
2023/04/29 12:24:39;;;;;;;16.60;15.00;;;12.80;99.90;;;;;;5011083;28;20623;-76
2023/04/29 12:27:09;;;;;;;15.53;13.97;;;12.80;99.90;;;;;;5003923;28;20293;-76
2023/04/29 12:29:36;;;;;;;18.03;13.83;;;12.90;99.90;;;;;;5004060;28;20760;-76
2023/04/29 12:32:01;;;;;;;19.83;15.33;;;13.00;99.90;;;;;;5005422;28;21038;-76